WXM80 ListenWXM80 Stop

You find our weather info also at:

UK Metoffice

WeatherCloud

Weather Underground

Northeastern Weather Network

AWEKAS

Citizen Weather Observer Program (CWOP)

HAMweather, WeatherForYou, PWS Weather


Weather Underground History page Text

Daily Summary for February 8, 2016 Units:  English    Metric   Both
« Previous Day
Next Day »
Daily Weekly Monthly Yearly Custom
  High: Low: Average:
Temperature: 38.5 °F 26.9 °F 31.3 °F
Dew Point: 33.4 °F 23.8 °F 28.3 °F
Humidity: 95 % 75 % 89 %
Wind Speed: 20.0 mph 2.0 mph 8.4 mph
Wind Gust: 26.0 mph - -
Wind:- - ENE
Pressure: 29.87 in 29.70 in -
Precipitation: 0.17 in    
Historical Graphs
 
 
Tabular Data for February 8, 2016
Time Temperature Dew Point Pressure Wind Wind Speed Wind Gust Humidity Rainfall Rate (Hourly)
00:10 38.5 °F 31.6 °F 29.87 in ENE 12.8 mph 18.0 mph 76 % 0.00 in
00:15 38.4 °F 31.5 °F 29.87 in NE 14.2 mph 24.2 mph 76 % 0.00 in
00:20 38.4 °F 31.5 °F 29.87 in ENE 12.2 mph 15.0 mph 76 % 0.00 in
00:30 38.2 °F 31.3 °F 29.86 in ENE 12.1 mph 16.1 mph 76 % 0.00 in
00:35 38.2 °F 31.6 °F 29.85 in NNE 9.9 mph 17.0 mph 77 % 0.00 in
00:40 38.0 °F 30.8 °F 29.85 in NE 12.2 mph 20.7 mph 75 % 0.00 in
00:45 38.0 °F 31.4 °F 29.84 in ENE 10.9 mph 12.7 mph 77 % 0.00 in
00:50 37.9 °F 31.3 °F 29.84 in ENE 10.7 mph 18.4 mph 77 % 0.00 in
00:55 37.8 °F 31.9 °F 29.84 in NE 11.4 mph 17.3 mph 79 % 0.00 in
01:01 37.8 °F 31.9 °F 29.83 in ENE 13.0 mph 19.6 mph 79 % 0.00 in
01:06 37.8 °F 32.2 °F 29.83 in ENE 9.2 mph 17.3 mph 80 % 0.00 in
01:11 37.7 °F 32.4 °F 29.83 in NNE 7.1 mph 11.5 mph 81 % 0.00 in
01:16 37.6 °F 32.3 °F 29.82 in NE 8.5 mph 18.4 mph 81 % 0.00 in
01:21 37.7 °F 32.7 °F 29.82 in East 10.9 mph 17.3 mph 82 % 0.00 in
01:26 37.7 °F 32.7 °F 29.82 in North 8.8 mph 17.3 mph 82 % 0.00 in
01:31 37.7 °F 32.7 °F 29.81 in ENE 8.1 mph 15.0 mph 82 % 0.00 in
01:36 37.7 °F 33.0 °F 29.81 in NE 9.5 mph 12.7 mph 83 % 0.00 in
01:42 37.7 °F 33.0 °F 29.81 in NE 8.8 mph 13.8 mph 83 % 0.00 in
01:47 37.7 °F 33.3 °F 29.81 in ENE 9.1 mph 18.4 mph 84 % 0.00 in
01:52 37.7 °F 33.0 °F 29.80 in NNE 7.8 mph 19.6 mph 83 % 0.00 in
01:57 37.8 °F 33.1 °F 29.79 in ENE 12.1 mph 19.6 mph 83 % 0.00 in
02:02 37.8 °F 33.4 °F 29.79 in East 10.4 mph 15.0 mph 84 % 0.00 in
02:07 37.8 °F 33.4 °F 29.78 in ENE 14.9 mph 21.9 mph 84 % 0.00 in
02:17 37.8 °F 33.4 °F 29.78 in NE 9.4 mph 16.1 mph 84 % 0.00 in
02:22 37.7 °F 33.3 °F 29.77 in ENE 11.6 mph 24.0 mph 84 % 0.00 in
02:27 37.7 °F 33.3 °F 29.77 in NNE 9.1 mph 13.8 mph 84 % 0.00 in
02:33 37.6 °F 33.2 °F 29.77 in NE 7.0 mph 11.5 mph 84 % 0.00 in
02:38 37.6 °F 33.2 °F 29.77 in NE 7.4 mph 12.7 mph 84 % 0.00 in
02:48 37.5 °F 33.1 °F 29.76 in NE 10.4 mph 16.1 mph 84 % 0.00 in
02:53 37.4 °F 33.0 °F 29.75 in NE 10.4 mph 19.6 mph 84 % 0.00 in
02:58 37.4 °F 33.0 °F 29.75 in NNE 8.6 mph 13.8 mph 84 % 0.00 in
03:03 37.3 °F 32.9 °F 29.75 in NNE 9.7 mph 17.3 mph 84 % 0.00 in
03:08 37.2 °F 32.8 °F 29.75 in NE 8.0 mph 13.8 mph 84 % 0.00 in
03:13 37.2 °F 32.5 °F 29.75 in NNE 10.4 mph 15.0 mph 83 % 0.00 in
03:18 37.2 °F 32.8 °F 29.75 in ENE 6.8 mph 12.7 mph 84 % 0.00 in
03:24 37.1 °F 32.7 °F 29.74 in ENE 8.5 mph 16.1 mph 84 % 0.00 in
03:29 37.1 °F 32.7 °F 29.74 in NE 8.6 mph 12.0 mph 84 % 0.00 in
03:34 37.1 °F 32.7 °F 29.73 in NE 10.0 mph 13.8 mph 84 % 0.00 in
03:39 37.1 °F 32.7 °F 29.73 in NNE 9.6 mph 17.3 mph 84 % 0.00 in
03:44 37.0 °F 32.6 °F 29.73 in NNE 6.9 mph 10.4 mph 84 % 0.00 in
03:49 37.0 °F 32.6 °F 29.72 in NNE 8.2 mph 17.3 mph 84 % 0.00 in
03:54 37.0 °F 32.6 °F 29.72 in NE 8.4 mph 12.0 mph 84 % 0.00 in
03:59 37.0 °F 32.6 °F 29.72 in NE 9.1 mph 13.8 mph 84 % 0.00 in
04:04 37.1 °F 32.7 °F 29.72 in NNE 9.3 mph 20.7 mph 84 % 0.00 in
04:09 37.1 °F 32.7 °F 29.71 in NE 11.7 mph 18.4 mph 84 % 0.00 in
04:15 37.2 °F 32.5 °F 29.71 in ENE 10.3 mph 16.1 mph 83 % 0.00 in
04:20 37.2 °F 32.8 °F 29.71 in NE 10.1 mph 13.8 mph 84 % 0.00 in
04:25 37.1 °F 32.7 °F 29.71 in North 8.4 mph 17.3 mph 84 % 0.00 in
04:30 37.1 °F 32.7 °F 29.71 in NE 7.6 mph 16.0 mph 84 % 0.00 in
04:35 37.1 °F 32.7 °F 29.70 in ENE 9.8 mph 17.3 mph 84 % 0.00 in
04:40 37.1 °F 32.7 °F 29.71 in East 9.9 mph 13.8 mph 84 % 0.00 in
04:45 37.2 °F 32.8 °F 29.71 in ENE 9.1 mph 13.8 mph 84 % 0.00 in
04:50 37.2 °F 32.8 °F 29.71 in ENE 9.5 mph 16.1 mph 84 % 0.00 in
05:00 37.1 °F 32.7 °F 29.72 in ENE 7.7 mph 12.7 mph 84 % 0.00 in
05:06 37.1 °F 32.7 °F 29.72 in NE 7.0 mph 11.5 mph 84 % 0.00 in
05:11 37.1 °F 32.7 °F 29.72 in ENE 7.7 mph 12.7 mph 84 % 0.00 in
05:16 37.1 °F 32.7 °F 29.72 in North 7.8 mph 12.7 mph 84 % 0.00 in
05:21 37.2 °F 32.8 °F 29.73 in ENE 6.9 mph 10.4 mph 84 % 0.00 in
05:26 37.2 °F 32.5 °F 29.73 in NE 7.4 mph 12.7 mph 83 % 0.00 in
05:31 37.2 °F 32.8 °F 29.73 in NNE 5.8 mph 11.5 mph 84 % 0.00 in
05:36 37.2 °F 32.8 °F 29.73 in NE 6.6 mph 11.5 mph 84 % 0.00 in
05:41 37.3 °F 32.9 °F 29.73 in ENE 7.2 mph 13.0 mph 84 % 0.00 in
05:46 37.3 °F 32.9 °F 29.73 in ENE 6.0 mph 13.8 mph 84 % 0.00 in
05:51 37.4 °F 33.0 °F 29.74 in ENE 6.6 mph 11.5 mph 84 % 0.00 in
05:57 37.4 °F 32.7 °F 29.74 in NNE 7.2 mph 11.5 mph 83 % 0.00 in
06:02 37.5 °F 32.8 °F 29.74 in ENE 14.3 mph 18.4 mph 83 % 0.00 in
06:07 37.8 °F 32.8 °F 29.74 in ENE 16.8 mph 23.0 mph 82 % 0.00 in
06:12 37.9 °F 32.6 °F 29.74 in NE 13.1 mph 17.3 mph 81 % 0.00 in
06:17 37.9 °F 32.9 °F 29.74 in ENE 12.3 mph 17.3 mph 82 % 0.00 in
06:22 37.8 °F 32.5 °F 29.74 in NNE 14.3 mph 20.7 mph 81 % 0.00 in
06:27 37.8 °F 31.9 °F 29.74 in NE 14.3 mph 21.9 mph 79 % 0.00 in
06:32 37.8 °F 31.9 °F 29.74 in ENE 17.6 mph 23.0 mph 79 % 0.00 in
06:37 37.7 °F 31.8 °F 29.74 in East 14.1 mph 18.0 mph 79 % 0.00 in
06:48 37.6 °F 31.7 °F 29.75 in ENE 15.4 mph 22.0 mph 79 % 0.00 in
06:53 37.4 °F 31.2 °F 29.75 in NE 15.7 mph 24.2 mph 78 % 0.00 in
06:58 37.3 °F 31.4 °F 29.75 in East 12.8 mph 19.6 mph 79 % 0.00 in
07:08 37.2 °F 31.0 °F 29.75 in NE 14.5 mph 23.0 mph 78 % 0.00 in
07:18 37.0 °F 31.1 °F 29.75 in East 18.2 mph 23.0 mph 79 % 0.00 in
07:23 36.9 °F 31.3 °F 29.76 in NNE 11.8 mph 18.4 mph 80 % 0.00 in
07:28 36.7 °F 30.5 °F 29.76 in ENE 15.7 mph 22.0 mph 78 % 0.00 in
07:33 36.4 °F 30.5 °F 29.76 in ENE 14.5 mph 20.7 mph 79 % 0.00 in
07:39 35.9 °F 31.2 °F 29.76 in East 20.0 mph 21.9 mph 83 % 0.00 in
07:44 35.3 °F 30.9 °F 29.76 in NE 15.5 mph 18.4 mph 84 % 0.00 in
07:49 35.1 °F 31.0 °F 29.76 in ENE 16.3 mph 23.0 mph 85 % 0.00 in
07:54 34.8 °F 31.0 °F 29.76 in NE 14.4 mph 26.0 mph 86 % 0.00 in
07:59 34.5 °F 31.0 °F 29.77 in NE 13.3 mph 20.7 mph 87 % 0.00 in
08:04 34.2 °F 31.3 °F 29.77 in NE 13.9 mph 20.7 mph 89 % 0.00 in
08:09 33.9 °F 31.3 °F 29.77 in ENE 15.5 mph 19.6 mph 90 % 0.00 in
08:14 33.5 °F 31.2 °F 29.77 in ENE 17.7 mph 24.2 mph 91 % 0.00 in
08:19 33.2 °F 31.1 °F 29.77 in ENE 13.4 mph 17.3 mph 92 % 0.00 in
08:24 33.0 °F 31.2 °F 29.78 in NE 14.1 mph 18.4 mph 93 % 0.00 in
08:30 32.8 °F 31.0 °F 29.78 in NE 7.9 mph 11.5 mph 93 % 0.00 in
08:35 32.7 °F 31.2 °F 29.78 in NE 12.7 mph 19.6 mph 94 % 0.00 in
08:40 32.4 °F 30.9 °F 29.78 in East 15.9 mph 25.0 mph 94 % 0.00 in
08:45 31.9 °F 30.4 °F 29.77 in East 13.7 mph 18.4 mph 94 % 0.00 in
08:50 31.8 °F 30.3 °F 29.77 in ENE 10.2 mph 13.8 mph 94 % 0.00 in
08:55 32.0 °F 30.7 °F 29.77 in NNE 9.2 mph 15.0 mph 95 % 0.00 in
09:00 31.9 °F 30.6 °F 29.78 in NNE 9.2 mph 13.8 mph 95 % 0.00 in
09:05 31.7 °F 30.4 °F 29.77 in NE 7.9 mph 16.1 mph 95 % 0.00 in
09:10 31.5 °F 30.2 °F 29.77 in NE 8.4 mph 11.0 mph 95 % 0.00 in
09:15 31.4 °F 30.1 °F 29.77 in NE 8.9 mph 11.5 mph 95 % 0.00 in
09:21 31.2 °F 29.9 °F 29.77 in ENE 7.4 mph 15.0 mph 95 % 0.00 in
09:26 31.1 °F 29.8 °F 29.77 in NE 5.2 mph 11.5 mph 95 % 0.00 in
09:31 31.1 °F 29.8 °F 29.77 in NNE 10.6 mph 18.0 mph 95 % 0.00 in
09:36 30.9 °F 29.6 °F 29.77 in NNE 10.3 mph 16.1 mph 95 % 0.00 in
09:41 30.9 °F 29.6 °F 29.77 in NNE 10.3 mph 16.1 mph 95 % 0.01 in
09:46 30.7 °F 29.4 °F 29.77 in NNE 9.8 mph 15.0 mph 95 % 0.01 in
09:51 30.6 °F 29.3 °F 29.78 in NNE 12.6 mph 19.6 mph 95 % 0.01 in
09:56 30.5 °F 29.2 °F 29.78 in NE 11.0 mph 18.4 mph 95 % 0.01 in
10:06 30.3 °F 29.0 °F 29.78 in NNE 8.1 mph 16.1 mph 95 % 0.02 in
10:12 30.2 °F 28.9 °F 29.78 in NE 13.0 mph 15.0 mph 95 % 0.02 in
10:17 30.0 °F 28.7 °F 29.78 in NNE 14.9 mph 19.6 mph 95 % 0.02 in
10:22 30.0 °F 28.7 °F 29.78 in North 9.4 mph 15.0 mph 95 % 0.03 in
10:27 29.9 °F 28.6 °F 29.78 in North 10.1 mph 12.7 mph 95 % 0.03 in
10:32 29.8 °F 28.5 °F 29.78 in NNE 10.7 mph 17.0 mph 95 % 0.03 in
10:37 29.6 °F 28.3 °F 29.78 in NNE 12.9 mph 16.0 mph 95 % 0.04 in
10:42 29.4 °F 28.1 °F 29.78 in NNE 12.3 mph 18.4 mph 95 % 0.03 in
10:47 29.3 °F 28.0 °F 29.78 in NNE 15.3 mph 20.0 mph 95 % 0.03 in
10:52 29.1 °F 27.8 °F 29.78 in NE 10.0 mph 14.0 mph 95 % 0.04 in
10:57 29.0 °F 27.7 °F 29.78 in North 9.2 mph 15.0 mph 95 % 0.04 in
11:03 28.9 °F 27.4 °F 29.77 in NE 8.4 mph 15.0 mph 94 % 0.03 in
11:08 28.9 °F 27.6 °F 29.78 in NE 11.5 mph 17.3 mph 95 % 0.03 in
11:13 28.8 °F 27.5 °F 29.77 in North 10.7 mph 13.8 mph 95 % 0.04 in
11:18 28.7 °F 27.2 °F 29.77 in NNE 7.2 mph 11.5 mph 94 % 0.03 in
11:23 28.5 °F 27.0 °F 29.77 in North 10.9 mph 12.7 mph 94 % 0.03 in
11:28 28.4 °F 26.9 °F 29.76 in North 7.6 mph 14.0 mph 94 % 0.04 in
11:33 28.3 °F 26.8 °F 29.76 in North 9.0 mph 17.3 mph 94 % 0.04 in
11:38 28.3 °F 26.8 °F 29.76 in NNE 10.1 mph 15.0 mph 94 % 0.04 in
11:43 28.3 °F 26.8 °F 29.76 in NE 9.7 mph 13.0 mph 94 % 0.04 in
11:48 28.4 °F 27.2 °F 29.76 in North 9.8 mph 15.0 mph 95 % 0.04 in
11:54 28.5 °F 27.3 °F 29.76 in NNE 7.4 mph 15.0 mph 95 % 0.04 in
11:59 28.6 °F 27.4 °F 29.76 in NNW 9.9 mph 13.8 mph 95 % 0.04 in
12:04 28.5 °F 27.3 °F 29.75 in NNE 7.7 mph 16.0 mph 95 % 0.05 in
12:09 28.5 °F 27.3 °F 29.76 in NNE 9.2 mph 13.8 mph 95 % 0.05 in
12:14 28.3 °F 26.8 °F 29.75 in North 11.2 mph 13.8 mph 94 % 0.05 in
12:24 28.1 °F 26.6 °F 29.75 in NNE 8.3 mph 12.7 mph 94 % 0.05 in
12:29 28.1 °F 26.6 °F 29.74 in NNE 8.5 mph 13.8 mph 94 % 0.05 in
12:34 28.2 °F 26.7 °F 29.74 in NNW 9.3 mph 12.0 mph 94 % 0.05 in
12:39 28.3 °F 26.8 °F 29.74 in North 9.4 mph 12.7 mph 94 % 0.04 in
12:45 28.5 °F 27.0 °F 29.73 in North 10.0 mph 12.7 mph 94 % 0.04 in
12:50 28.5 °F 27.0 °F 29.73 in NNE 7.9 mph 16.0 mph 94 % 0.03 in
12:55 28.6 °F 27.1 °F 29.73 in North 5.4 mph 9.2 mph 94 % 0.03 in
13:00 28.7 °F 27.2 °F 29.73 in North 6.1 mph 12.7 mph 94 % 0.02 in
13:05 28.7 °F 26.9 °F 29.72 in North 9.9 mph 15.0 mph 93 % 0.02 in
13:10 28.6 °F 26.8 °F 29.72 in NNE 7.0 mph 11.5 mph 93 % 0.02 in
13:15 28.6 °F 26.8 °F 29.72 in NE 9.7 mph 15.0 mph 93 % 0.01 in
13:20 28.5 °F 26.5 °F 29.72 in NNE 9.7 mph 17.3 mph 92 % 0.01 in
13:25 28.4 °F 26.6 °F 29.72 in NNE 8.4 mph 13.8 mph 93 % 0.01 in
13:30 28.4 °F 26.6 °F 29.72 in NE 10.3 mph 11.5 mph 93 % 0.00 in
13:36 28.4 °F 26.4 °F 29.73 in North 9.2 mph 12.7 mph 92 % 0.00 in
13:41 28.3 °F 26.5 °F 29.73 in NNE 7.6 mph 12.7 mph 93 % 0.00 in
13:46 28.3 °F 26.5 °F 29.72 in North 5.5 mph 10.4 mph 93 % 0.00 in
13:51 28.4 °F 26.6 °F 29.73 in North 9.2 mph 15.0 mph 93 % 0.00 in
13:56 28.3 °F 26.5 °F 29.73 in NNW 7.2 mph 10.4 mph 93 % 0.00 in
14:01 28.3 °F 26.5 °F 29.72 in NE 6.8 mph 11.5 mph 93 % 0.00 in
14:06 28.3 °F 26.5 °F 29.72 in NNW 5.0 mph 9.2 mph 93 % 0.01 in
14:16 28.3 °F 26.8 °F 29.71 in North 9.9 mph 11.5 mph 94 % 0.01 in
14:21 28.3 °F 26.8 °F 29.71 in NE 8.0 mph 16.0 mph 94 % 0.01 in
14:32 28.1 °F 26.3 °F 29.72 in NNW 9.2 mph 16.1 mph 93 % 0.01 in
14:37 28.1 °F 26.3 °F 29.72 in NNE 7.0 mph 11.5 mph 93 % 0.01 in
14:42 28.1 °F 26.3 °F 29.72 in NNE 8.4 mph 11.5 mph 93 % 0.01 in
14:47 28.2 °F 26.4 °F 29.72 in NNE 6.8 mph 12.7 mph 93 % 0.02 in
14:52 28.2 °F 26.4 °F 29.72 in NNW 7.5 mph 10.4 mph 93 % 0.02 in
14:57 28.3 °F 26.5 °F 29.72 in North 7.1 mph 12.0 mph 93 % 0.02 in
15:02 28.3 °F 26.8 °F 29.73 in NNE 5.1 mph 8.0 mph 94 % 0.02 in
15:07 28.3 °F 26.8 °F 29.73 in North 6.1 mph 11.5 mph 94 % 0.01 in
15:13 28.2 °F 26.4 °F 29.73 in NNE 10.6 mph 13.8 mph 93 % 0.01 in
15:18 27.9 °F 26.1 °F 29.73 in North 9.0 mph 18.4 mph 93 % 0.01 in
15:23 27.8 °F 26.0 °F 29.73 in NNE 7.3 mph 11.5 mph 93 % 0.01 in
15:28 27.8 °F 26.0 °F 29.73 in North 7.4 mph 12.7 mph 93 % 0.01 in
15:33 27.9 °F 26.1 °F 29.73 in NNE 6.4 mph 8.1 mph 93 % 0.02 in
15:38 27.9 °F 26.1 °F 29.73 in North 6.1 mph 12.7 mph 93 % 0.02 in
15:43 27.9 °F 26.1 °F 29.73 in North 7.8 mph 11.5 mph 93 % 0.01 in
15:48 27.9 °F 26.1 °F 29.73 in NNE 7.3 mph 10.4 mph 93 % 0.01 in
15:53 27.9 °F 26.1 °F 29.73 in NNE 5.4 mph 10.4 mph 93 % 0.01 in
15:58 27.9 °F 26.1 °F 29.73 in North 6.1 mph 15.0 mph 93 % 0.01 in
16:04 28.0 °F 26.2 °F 29.73 in NNE 8.0 mph 10.0 mph 93 % 0.01 in
16:09 27.9 °F 26.1 °F 29.73 in NNE 8.3 mph 11.5 mph 93 % 0.01 in
16:14 28.0 °F 26.2 °F 29.73 in NNE 7.7 mph 12.7 mph 93 % 0.01 in
16:19 28.0 °F 26.0 °F 29.74 in NNE 6.2 mph 11.5 mph 92 % 0.01 in
16:29 27.9 °F 25.9 °F 29.74 in NE 7.0 mph 13.8 mph 92 % 0.01 in
16:34 27.9 °F 25.9 °F 29.73 in NE 8.1 mph 12.7 mph 92 % 0.00 in
16:39 27.9 °F 25.9 °F 29.73 in NNE 8.3 mph 14.0 mph 92 % 0.00 in
16:44 28.0 °F 26.0 °F 29.72 in NNE 5.9 mph 10.4 mph 92 % 0.00 in
16:49 28.0 °F 26.0 °F 29.73 in North 7.8 mph 12.7 mph 92 % 0.00 in
16:55 28.0 °F 26.0 °F 29.73 in North 6.6 mph 10.4 mph 92 % 0.01 in
17:00 27.9 °F 25.9 °F 29.73 in North 10.5 mph 11.0 mph 92 % 0.01 in
17:05 27.9 °F 25.9 °F 29.73 in NNE 6.5 mph 15.0 mph 92 % 0.01 in
17:10 27.9 °F 25.9 °F 29.72 in NNE 6.0 mph 11.5 mph 92 % 0.01 in
17:15 27.9 °F 25.9 °F 29.73 in NNE 3.0 mph 4.6 mph 92 % 0.01 in
17:20 27.9 °F 25.9 °F 29.73 in ENE 3.8 mph 6.9 mph 92 % 0.01 in
17:25 28.0 °F 26.0 °F 29.73 in NNE 6.4 mph 10.4 mph 92 % 0.01 in
17:30 28.0 °F 26.0 °F 29.74 in ENE 6.6 mph 11.0 mph 92 % 0.01 in
17:35 28.0 °F 25.7 °F 29.74 in NE 6.1 mph 12.0 mph 91 % 0.01 in
17:40 28.0 °F 25.7 °F 29.74 in ENE 9.4 mph 13.8 mph 91 % 0.01 in
17:46 28.0 °F 25.4 °F 29.75 in East 6.6 mph 12.7 mph 90 % 0.01 in
17:51 28.0 °F 25.2 °F 29.75 in ENE 4.2 mph 10.4 mph 89 % 0.01 in
17:56 28.0 °F 25.4 °F 29.75 in NE 6.7 mph 11.5 mph 90 % 0.00 in
18:01 28.1 °F 25.3 °F 29.75 in NE 8.5 mph 12.7 mph 89 % 0.00 in
18:06 28.0 °F 25.2 °F 29.76 in NNE 5.3 mph 9.2 mph 89 % 0.00 in
18:11 27.9 °F 25.3 °F 29.76 in NNE 7.7 mph 11.5 mph 90 % 0.00 in
18:16 27.9 °F 25.3 °F 29.76 in NNE 3.9 mph 4.6 mph 90 % 0.00 in
18:21 27.9 °F 25.3 °F 29.77 in NNE 4.1 mph 7.0 mph 90 % 0.00 in
18:26 27.9 °F 25.3 °F 29.77 in NNE 5.2 mph 9.2 mph 90 % 0.00 in
18:31 27.8 °F 25.2 °F 29.78 in NE 4.3 mph 5.8 mph 90 % 0.00 in
18:37 27.8 °F 25.2 °F 29.78 in NE 6.1 mph 11.5 mph 90 % 0.00 in
18:42 27.8 °F 25.2 °F 29.79 in NE 4.0 mph 5.0 mph 90 % 0.00 in
18:47 27.8 °F 25.2 °F 29.79 in NE 4.3 mph 7.0 mph 90 % 0.00 in
18:52 27.8 °F 25.2 °F 29.78 in NNE 4.1 mph 8.1 mph 90 % 0.00 in
18:57 27.8 °F 25.2 °F 29.77 in NNE 5.5 mph 10.4 mph 90 % 0.00 in
19:02 27.8 °F 25.0 °F 29.78 in ENE 4.8 mph 9.2 mph 89 % 0.00 in
19:07 27.8 °F 24.7 °F 29.78 in NE 3.4 mph 8.1 mph 88 % 0.00 in
19:12 27.8 °F 25.0 °F 29.78 in NE 3.7 mph 5.8 mph 89 % 0.00 in
19:17 27.8 °F 25.0 °F 29.78 in NE 4.1 mph 9.2 mph 89 % 0.00 in
19:22 27.8 °F 25.0 °F 29.78 in ENE 5.6 mph 10.4 mph 89 % 0.00 in
19:28 27.8 °F 25.0 °F 29.78 in ENE 6.9 mph 11.5 mph 89 % 0.00 in
19:33 27.7 °F 24.9 °F 29.78 in NE 6.0 mph 9.2 mph 89 % 0.00 in
19:38 27.7 °F 24.9 °F 29.77 in NE 7.4 mph 10.4 mph 89 % 0.00 in
19:43 27.6 °F 25.1 °F 29.77 in ENE 10.0 mph 12.7 mph 90 % 0.00 in
19:48 27.5 °F 25.0 °F 29.78 in ENE 6.6 mph 10.4 mph 90 % 0.00 in
19:53 27.5 °F 25.0 °F 29.78 in ENE 6.9 mph 11.5 mph 90 % 0.00 in
19:58 27.5 °F 25.0 °F 29.78 in NE 4.3 mph 8.1 mph 90 % 0.00 in
20:03 27.5 °F 25.0 °F 29.77 in ENE 7.1 mph 11.5 mph 90 % 0.00 in
20:08 27.5 °F 25.0 °F 29.77 in ENE 3.4 mph 6.9 mph 90 % 0.00 in
20:13 27.4 °F 25.1 °F 29.78 in ENE 6.0 mph 11.5 mph 91 % 0.00 in
20:19 27.4 °F 24.9 °F 29.78 in ENE 4.4 mph 8.1 mph 90 % 0.00 in
20:24 27.2 °F 24.7 °F 29.78 in ENE 8.5 mph 11.5 mph 90 % 0.00 in
20:29 27.2 °F 24.7 °F 29.78 in NE 4.7 mph 10.4 mph 90 % 0.00 in
20:34 27.1 °F 24.6 °F 29.78 in ENE 4.0 mph 9.2 mph 90 % 0.00 in
20:39 27.0 °F 24.5 °F 29.78 in NNE 5.6 mph 11.5 mph 90 % 0.00 in
20:44 27.1 °F 24.8 °F 29.79 in ENE 6.0 mph 9.2 mph 91 % 0.01 in
20:49 27.0 °F 24.5 °F 29.78 in NE 5.0 mph 9.2 mph 90 % 0.01 in
20:54 27.1 °F 24.8 °F 29.78 in ENE 4.7 mph 6.9 mph 91 % 0.01 in
20:59 27.1 °F 24.8 °F 29.78 in NNE 5.1 mph 9.2 mph 91 % 0.01 in
21:04 27.0 °F 24.7 °F 29.79 in NNE 5.6 mph 8.1 mph 91 % 0.01 in
21:10 27.0 °F 24.7 °F 29.79 in NNE 2.9 mph 6.9 mph 91 % 0.01 in
21:15 27.0 °F 24.7 °F 29.79 in ENE 4.8 mph 10.4 mph 91 % 0.01 in
21:20 27.0 °F 24.5 °F 29.79 in NE 3.7 mph 8.1 mph 90 % 0.01 in
21:30 27.0 °F 24.2 °F 29.79 in NNE 2.9 mph 5.8 mph 89 % 0.01 in
21:35 27.0 °F 24.2 °F 29.79 in NNE 3.4 mph 5.8 mph 89 % 0.01 in
21:40 27.0 °F 24.2 °F 29.79 in NE 3.7 mph 8.1 mph 89 % 0.01 in
21:45 27.0 °F 24.2 °F 29.79 in NE 3.6 mph 6.9 mph 89 % 0.00 in
21:50 27.0 °F 23.9 °F 29.79 in NE 4.9 mph 8.1 mph 88 % 0.00 in
21:55 27.0 °F 24.2 °F 29.79 in NNE 3.7 mph 5.8 mph 89 % 0.00 in
22:01 27.1 °F 24.3 °F 29.78 in NNE 5.1 mph 8.0 mph 89 % 0.00 in
22:06 27.1 °F 24.6 °F 29.78 in NE 2.0 mph 3.5 mph 90 % 0.00 in
22:11 27.1 °F 24.6 °F 29.78 in NE 4.3 mph 11.5 mph 90 % 0.00 in
22:16 27.1 °F 24.6 °F 29.77 in North 5.3 mph 9.2 mph 90 % 0.00 in
22:21 27.1 °F 24.6 °F 29.77 in NNE 2.6 mph 4.6 mph 90 % 0.00 in
22:26 27.1 °F 24.6 °F 29.77 in NE 2.0 mph 6.9 mph 90 % 0.00 in
22:31 27.0 °F 24.5 °F 29.77 in NE 3.1 mph 7.0 mph 90 % 0.00 in
22:36 27.0 °F 24.2 °F 29.77 in NNE 4.4 mph 6.9 mph 89 % 0.00 in
22:41 27.0 °F 24.2 °F 29.77 in ENE 3.8 mph 8.1 mph 89 % 0.00 in
22:46 26.9 °F 24.1 °F 29.77 in NNE 3.6 mph 6.9 mph 89 % 0.00 in
22:52 26.9 °F 24.1 °F 29.77 in NE 4.7 mph 8.1 mph 89 % 0.00 in
22:57 26.9 °F 24.1 °F 29.77 in NE 3.6 mph 6.9 mph 89 % 0.00 in
23:02 27.0 °F 24.2 °F 29.76 in NE 3.0 mph 5.8 mph 89 % 0.00 in
23:07 26.9 °F 24.1 °F 29.76 in ENE 6.4 mph 8.1 mph 89 % 0.00 in
23:12 26.9 °F 24.1 °F 29.76 in NE 2.0 mph 5.8 mph 89 % 0.00 in
23:17 26.9 °F 24.1 °F 29.76 in ENE 5.5 mph 8.1 mph 89 % 0.00 in
23:22 26.9 °F 23.8 °F 29.76 in NE 2.8 mph 4.6 mph 88 % 0.00 in
23:27 26.9 °F 24.1 °F 29.76 in NE 4.5 mph 4.5 mph 89 % 0.00 in
23:32 26.9 °F 24.1 °F 29.76 in ENE 4.1 mph 8.1 mph 89 % 0.00 in
23:37 26.9 °F 23.8 °F 29.76 in NNE 4.6 mph 10.4 mph 88 % 0.00 in
23:43 26.9 °F 23.8 °F 29.75 in ENE 4.6 mph 6.9 mph 88 % 0.00 in
23:48 26.9 °F 23.8 °F 29.75 in ENE 4.8 mph 9.2 mph 88 % 0.00 in
23:53 26.9 °F 24.1 °F 29.75 in NE 4.7 mph 9.2 mph 89 % 0.00 in
23:58 26.9 °F 24.1 °F 29.75 in ENE 6.0 mph 10.4 mph 89 % 0.00 in
Crab Meadow Weather
Compliments of Weather Underground - 2.75 mb

Script developed by  Jim McMurry - jmcmurry@mwt.net Adapted for the template by  Wim van der Kuil - Leuven-Template.eu

Astronomy: Our moon is moving away from the earth at about 3cm per year.